TNCM/SXM METAR and TAF weather

Enter ICAO airport designator
Station Type Date Time Source
TNCM METAR 2019/04/23 04:00 UTC NOAA

TNCM 230400Z 06005KT 9999 FEW022 25/18 Q1015 RMK A2999


Station Type Date Time Source
TNCM Decoded METAR 2019/04/23 04:00 UTC NOAA

Juliana Airport, Saint Maarten, Netherlands Antilles (TNCM) 18-03N 063-07W 9M
Apr 23, 2019 - 12:00 AM EDT / 2019.04.23 0400 UTC
Wind: from the ENE (060 degrees) at 6 MPH (5 KT):0
Visibility: greater than 7 mile(s):0
Sky conditions: mostly clear
Temperature: 77 F (25 C)
Dew Point: 64 F (18 C)
Relative Humidity: 65%
Pressure (altimeter): 29.97 in. Hg (1015 hPa)
ob: TNCM 230400Z 06005KT 9999 FEW022 25/18 Q1015 RMK A2999
cycle: 4

Station Type Date Time Source
TNCM TAF 2019/04/23 00:06 UTC NOAA

TAF TNCM 230000Z 2300/2324 04008KT P6SM FEW018 SCT030
FM231400 10012KT P6SM FEW025

Example: see airport list